Milo, WY

1:12 AM MDT on March 24, 2017 (GMT -0600)
MMBRW4 | | Change Station
Active Advisory: Winter Weather Advisory

Elev 7996 ft 41.55 °N, 106.41 °W | Updated 1 hour ago

Thunderstorm
Thunderstorm
30.0 °F
Feels Like 30.0 °F
N
-
Wind Variable Wind from North

Today
High -- | Low -- °F
--% Chance of Precip.
Yesterday
High -- | Low -- °F
Precip. -- in
Pressure 29.96 in
Visibility 10.0 miles
Clouds Overcast 1500 ft
Dew Point Not available.
Humidity Not available.
Rainfall in
Snow Depth Not available.
7:01 AM 7:22 PM
Waning Crescent, 17% visible
METAR KEHY 240655Z AUTO 02006KT 10SM TS OVC015 00/M01 A2996 RMK AO2 LTG DSNT SE
Pressure 29.96 in
Visibility 10.0 miles
Clouds Overcast 1500 ft
Dew Point Not available.
Humidity Not available.
Rainfall in
Snow Depth Not available.
7:01 AM 7:22 PM
Waning Crescent, 17% visible
METAR KEHY 240655Z AUTO 02006KT 10SM TS OVC015 00/M01 A2996 RMK AO2 LTG DSNT SE

Get Your Daily Forecast Email!

Thanks for signing up!

Be on the lookout for a verification email in your inbox.

You'll start receiving severe weather alerts in your inbox..

×

10-Day Weather Forecast

Almanac

Astronomy

Mar. 24, 2017 Rise Set
Actual Time
Civil Twilight
Nautical Twilight
Astronomical Twilight
Moon
Length of Visible Light
Length of Day
Tomorrow will be .
, % of the Moon is Illuminated

Today's Extremes

State Highs State Lows

Community

WunderPhotos

Upload Photos

1,962,540 photos uploaded!

WunderBlog® & News

Nearby

Air Quality

  Air Quality AQ Index Pollutant
Not available.

Snow Depth

Station Depth Elevation

Earthquake Activity

City Distance Mag. Time & Date
Minimum magnitude displayed is 2.5.

Earthquake Activity

City Distance Mag. Time & Date
Minimum magnitude displayed is 2.5.

Coastal Water Temperatures

Place Temperature

Stations

Nearby Weather Stations

Station Location Temp. Windchill Dew Point Humidity Wind Precip. Elev Updated Type
                   

Watches & Warnings

Winter Weather Advisory
Issued: 12:40 PM MDT Mar. 23, 2017 – National Weather Service

... Winter Weather Advisory in effect from 9 PM this evening to
9 am MDT Friday...

The National Weather Service in Cheyenne has issued a Winter
Weather Advisory for snow and blowing snow, which is in effect
from 9 PM this evening to 9 am MDT Friday.

* Timing... 9 PM MDT Thursday through 9 am MDT Friday.

* Total snow accumulations... 2 to 3 inches.

* Winds/visibility... north winds 20 to 30 mph with gusts up to 45
mph. Visibilities may be reduced to one half of a mile at times
in falling and blowing snow.

* Impacts... roads will become snow covered and visibilities will
be reduced later tonight and especially for the Friday morning commute.

Precautionary/preparedness actions...

A Winter Weather Advisory for snow means that periods of snow
will cause travel difficulties. Be prepared for snow covered roads
and limited visibilities... and use caution while driving.